Time;durP1;ratioP1;P1;durP2;ratioP2;P2;SDS_P1;SDS_P2;PMS_P1;PMS_P2;Temp;Humidity;BMP_temperature;BMP_pressure;BME280_temperature;BME280_humidity;BME280_pressure;Samples;Min_cycle;Max_cycle;Signal;HPM_P1;HPM_P2
2021/03/05 00:01:21;;;;;;;1.58;0.90;;;23.50;90.70;;;;;;4862449;29;20431;-84
2021/03/05 00:03:48;;;;;;;4.25;1.10;;;23.10;91.30;;;;;;4874730;29;20392;-83
2021/03/05 00:06:15;;;;;;;3.47;1.05;;;22.60;92.00;;;;;;4874683;29;20830;-85
2021/03/05 00:08:42;;;;;;;2.35;0.90;;;22.40;92.70;;;;;;4875365;29;20494;-83
2021/03/05 00:11:09;;;;;;;4.03;1.20;;;22.30;92.70;;;;;;4873700;29;20921;-85
2021/03/05 00:13:36;;;;;;;2.90;1.10;;;22.30;92.30;;;;;;4875001;29;20423;-84
2021/03/05 00:16:03;;;;;;;1.55;0.73;;;22.60;93.10;;;;;;4875345;29;20438;-84
2021/03/05 00:18:30;;;;;;;6.13;1.33;;;22.70;91.60;;;;;;4875001;29;20418;-84
2021/03/05 00:20:57;;;;;;;13.27;2.67;;;22.50;94.30;;;;;;4866342;29;20461;-85
2021/03/05 00:23:24;;;;;;;14.48;3.00;;;22.20;96.00;;;;;;4874883;29;20402;-83
2021/03/05 00:25:51;;;;;;;15.63;3.00;;;22.10;97.00;;;;;;4872602;29;20422;-84
2021/03/05 00:28:19;;;;;;;12.98;3.17;;;22.00;97.40;;;;;;4874389;29;20470;-82
2021/03/05 00:30:47;;;;;;;17.55;3.45;;;21.60;98.00;;;;;;4873245;29;20771;-83
2021/03/05 00:33:14;;;;;;;21.02;3.33;;;21.50;98.80;;;;;;4873259;29;20399;-82
2021/03/05 00:35:41;;;;;;;13.85;3.13;;;21.50;99.00;;;;;;4874712;29;20401;-84
2021/03/05 00:38:08;;;;;;;16.50;3.47;;;21.50;98.90;;;;;;4874820;29;20430;-83
2021/03/05 00:40:35;;;;;;;14.23;3.25;;;21.40;98.50;;;;;;4874951;29;20506;-83
2021/03/05 00:43:02;;;;;;;14.77;3.03;;;22.00;98.90;;;;;;4874664;29;20414;-83
2021/03/05 00:45:29;;;;;;;13.38;3.13;;;22.50;97.40;;;;;;4874131;29;20443;-84
2021/03/05 00:47:55;;;;;;;11.23;2.80;;;22.60;96.70;;;;;;4887467;29;20467;-84
2021/03/05 00:50:22;;;;;;;15.85;3.25;;;22.70;96.40;;;;;;4889874;29;20426;-84
2021/03/05 00:52:51;;;;;;;15.60;2.90;;;22.80;95.50;;;;;;4874421;29;20501;-83
2021/03/05 00:55:18;;;;;;;17.40;3.50;;;22.50;95.90;;;;;;4874168;29;20402;-85
2021/03/05 00:57:45;;;;;;;15.93;3.35;;;22.10;96.40;;;;;;4875635;29;20399;-84
2021/03/05 01:00:15;;;;;;;11.80;2.73;;;21.80;96.80;;;;;;4874409;29;20411;-84
2021/03/05 01:02:43;;;;;;;16.80;3.33;;;21.60;97.20;;;;;;4874647;29;20406;-84
2021/03/05 01:05:11;;;;;;;15.48;3.47;;;21.40;98.10;;;;;;4874867;29;20407;-84
2021/03/05 01:07:38;;;;;;;25.52;4.68;;;21.10;98.20;;;;;;4857790;29;20422;-84
2021/03/05 01:10:07;;;;;;;19.20;3.58;;;21.00;98.50;;;;;;4874987;29;20473;-82
2021/03/05 01:12:35;;;;;;;16.67;3.73;;;20.90;98.50;;;;;;4871948;29;20465;-84
2021/03/05 01:15:04;;;;;;;18.25;4.00;;;21.00;98.50;;;;;;4873437;29;20419;-84
2021/03/05 01:17:31;;;;;;;19.40;3.47;;;21.30;97.60;;;;;;4874903;29;20450;-85
2021/03/05 01:19:58;;;;;;;22.20;4.25;;;21.30;97.30;;;;;;4873901;29;20491;-84
2021/03/05 01:22:25;;;;;;;18.40;4.07;;;21.20;97.70;;;;;;4874545;29;20399;-83
2021/03/05 01:24:52;;;;;;;15.43;3.87;;;21.00;98.40;;;;;;4874077;29;20493;-86
2021/03/05 01:27:19;;;;;;;15.80;3.60;;;20.70;98.90;;;;;;4873665;29;20422;-85
2021/03/05 01:29:46;;;;;;;18.13;3.65;;;20.60;98.80;;;;;;4871240;29;20394;-86
2021/03/05 01:32:13;;;;;;;16.33;3.92;;;20.50;98.50;;;;;;4874593;29;20407;-85
2021/03/05 01:34:40;;;;;;;19.23;4.43;;;20.40;98.60;;;;;;4875053;29;20418;-85
2021/03/05 01:37:07;;;;;;;16.85;3.90;;;20.30;98.70;;;;;;4875276;29;20942;-85
2021/03/05 01:39:34;;;;;;;15.82;3.58;;;20.40;98.90;;;;;;4875157;29;20506;-86
2021/03/05 01:42:01;;;;;;;19.63;4.00;;;20.50;97.80;;;;;;4871628;29;20923;-84
2021/03/05 01:44:28;;;;;;;15.43;3.73;;;20.60;97.20;;;;;;4873010;29;20510;-83
2021/03/05 01:46:55;;;;;;;16.57;3.27;;;20.90;97.60;;;;;;4875382;29;20480;-83
2021/03/05 01:49:22;;;;;;;17.47;3.47;;;21.20;97.20;;;;;;4875684;29;20490;-84
2021/03/05 01:51:49;;;;;;;16.27;4.17;;;21.50;97.10;;;;;;4874283;29;20412;-84
2021/03/05 01:54:16;;;;;;;19.57;4.50;;;22.00;96.20;;;;;;4874860;29;20958;-84
2021/03/05 01:56:45;;;;;;;21.10;4.07;;;21.90;95.00;;;;;;4877835;29;20411;-85
2021/03/05 01:59:16;;;;;;;15.50;3.77;;;22.00;95.90;;;;;;4877042;29;20578;-84
2021/03/05 02:01:43;;;;;;;25.13;5.05;;;22.00;95.20;;;;;;4879258;29;20414;-84
2021/03/05 02:04:12;;;;;;;19.80;4.22;;;21.90;94.80;;;;;;4877751;29;20875;-83
2021/03/05 02:06:39;;;;;;;19.20;4.38;;;21.90;94.80;;;;;;4879737;29;20387;-84
2021/03/05 02:09:07;;;;;;;18.05;3.80;;;21.80;94.50;;;;;;4879817;29;20383;-84
2021/03/05 02:11:37;;;;;;;16.15;3.80;;;21.60;95.10;;;;;;4878351;29;20892;-83
2021/03/05 02:14:07;;;;;;;16.70;3.50;;;21.60;94.00;;;;;;4877597;29;20418;-85
2021/03/05 02:16:34;;;;;;;15.57;3.70;;;21.50;94.50;;;;;;4877415;29;20438;-84
2021/03/05 02:19:31;;;;;;;18.30;3.30;;;21.60;94.90;;;;;;4874120;29;20494;-81
2021/03/05 02:22:35;;;;;;;19.17;3.80;;;21.70;94.20;;;;;;4866367;29;21002;-83
2021/03/05 02:25:29;;;;;;;18.25;3.72;;;21.60;94.30;;;;;;4877192;29;20411;-82
2021/03/05 02:28:19;;;;;;;17.05;3.47;;;21.50;94.60;;;;;;4870853;29;20442;-85
2021/03/05 02:31:10;;;;;;;18.95;3.53;;;21.30;94.00;;;;;;4868418;29;20451;-83
2021/03/05 02:33:54;;;;;;;15.27;3.20;;;21.40;94.30;;;;;;4875399;29;20422;-84
2021/03/05 02:36:26;;;;;;;15.82;3.70;;;21.60;94.80;;;;;;4877020;29;20407;-84
2021/03/05 02:39:06;;;;;;;15.15;3.22;;;21.60;93.90;;;;;;4876706;29;20490;-84
2021/03/05 02:41:38;;;;;;;16.23;3.60;;;21.60;93.40;;;;;;4876142;29;20491;-83
2021/03/05 02:44:09;;;;;;;15.40;3.65;;;21.80;93.90;;;;;;4876351;29;20418;-84
2021/03/05 02:46:39;;;;;;;15.97;3.73;;;21.70;92.70;;;;;;4875389;29;21029;-85
2021/03/05 02:49:08;;;;;;;16.05;3.92;;;21.60;93.50;;;;;;4876176;29;20399;-84
2021/03/05 02:51:36;;;;;;;17.33;3.60;;;21.70;93.30;;;;;;4875270;29;20429;-83
2021/03/05 02:54:06;;;;;;;14.70;3.42;;;21.80;93.20;;;;;;4873442;29;20907;-84
2021/03/05 02:56:37;;;;;;;17.60;3.80;;;21.70;92.20;;;;;;4875465;29;20415;-84
2021/03/05 02:59:06;;;;;;;15.73;3.47;;;21.60;92.90;;;;;;4874484;29;20470;-83
2021/03/05 03:01:34;;;;;;;16.43;3.33;;;21.60;92.50;;;;;;4876623;29;21266;-83
2021/03/05 03:04:05;;;;;;;13.27;3.05;;;21.60;92.70;;;;;;4875669;29;20402;-84
2021/03/05 03:06:33;;;;;;;14.27;3.47;;;21.60;93.00;;;;;;4875141;29;20415;-83
2021/03/05 03:09:05;;;;;;;16.55;3.85;;;21.60;92.10;;;;;;4873332;29;20574;-84
2021/03/05 03:11:34;;;;;;;17.10;4.00;;;21.60;93.10;;;;;;4875085;29;20530;-84
2021/03/05 03:14:02;;;;;;;16.88;3.72;;;21.50;92.80;;;;;;4874990;29;20399;-85
2021/03/05 03:16:29;;;;;;;18.40;3.80;;;21.50;92.80;;;;;;4875319;29;20415;-85
2021/03/05 03:18:58;;;;;;;17.67;3.75;;;21.60;93.60;;;;;;4876085;29;20950;-84
2021/03/05 03:21:27;;;;;;;18.73;3.97;;;21.70;93.70;;;;;;4875770;29;20471;-84
2021/03/05 03:23:56;;;;;;;13.32;3.13;;;21.90;93.10;;;;;;4876334;29;21654;-83
2021/03/05 03:26:24;;;;;;;15.57;3.67;;;22.00;92.50;;;;;;4875001;29;20453;-84
2021/03/05 03:28:51;;;;;;;19.08;3.92;;;22.00;93.00;;;;;;4874144;29;20453;-83
2021/03/05 03:31:18;;;;;;;13.70;3.72;;;22.10;92.80;;;;;;4875908;29;20753;-84
2021/03/05 03:33:46;;;;;;;16.23;3.45;;;21.90;91.80;;;;;;4873599;29;20812;-83
2021/03/05 03:36:14;;;;;;;16.58;3.75;;;21.60;92.20;;;;;;4874492;29;20415;-82
2021/03/05 03:38:42;;;;;;;17.80;3.80;;;21.50;92.50;;;;;;4874458;29;20422;-82
2021/03/05 03:41:12;;;;;;;17.73;3.85;;;21.40;92.20;;;;;;4875994;29;20510;-83
2021/03/05 03:43:39;;;;;;;14.82;3.25;;;21.40;92.60;;;;;;4876051;29;20398;-82
2021/03/05 03:46:09;;;;;;;18.55;4.05;;;21.50;92.20;;;;;;4875246;29;20430;-83
2021/03/05 03:48:42;;;;;;;16.03;3.40;;;21.70;92.20;;;;;;4875768;29;20479;-83
2021/03/05 03:51:11;;;;;;;15.23;3.60;;;21.60;93.20;;;;;;4875685;29;20403;-83
2021/03/05 03:53:39;;;;;;;17.17;3.60;;;21.60;92.40;;;;;;4874247;29;20835;-82
2021/03/05 03:56:10;;;;;;;17.00;4.00;;;21.60;92.10;;;;;;4874699;29;20403;-83
2021/03/05 03:58:39;;;;;;;15.88;3.63;;;21.60;92.30;;;;;;4875199;29;20470;-82
2021/03/05 04:01:11;;;;;;;17.50;3.65;;;21.50;92.60;;;;;;4871556;29;20422;-82
2021/03/05 04:03:44;;;;;;;14.48;3.40;;;21.40;92.50;;;;;;4876436;29;20825;-82
2021/03/05 04:06:13;;;;;;;15.95;3.15;;;21.30;92.50;;;;;;4867617;29;20410;-83
2021/03/05 04:08:42;;;;;;;16.10;3.63;;;21.30;92.50;;;;;;4874711;29;20411;-82
2021/03/05 04:11:10;;;;;;;14.43;3.50;;;21.40;92.80;;;;;;4875319;29;20954;-82
2021/03/05 04:13:40;;;;;;;17.02;3.50;;;21.50;93.20;;;;;;4871646;29;20455;-84
2021/03/05 04:16:07;;;;;;;16.95;3.80;;;21.60;92.10;;;;;;4873204;29;20403;-84
2021/03/05 04:18:36;;;;;;;18.45;4.03;;;21.50;92.30;;;;;;4872785;29;20431;-83
2021/03/05 04:21:25;;;;;;;14.00;3.87;;;21.50;92.90;;;;;;4870046;29;20402;-84
2021/03/05 04:23:52;;;;;;;16.85;3.40;;;21.70;92.50;;;;;;4872702;29;20505;-83
2021/03/05 04:26:19;;;;;;;13.48;3.63;;;21.60;91.50;;;;;;4874804;29;20430;-83
2021/03/05 04:28:46;;;;;;;14.88;3.47;;;21.50;91.40;;;;;;4874825;29;20462;-85
2021/03/05 04:31:13;;;;;;;17.45;3.72;;;21.50;91.50;;;;;;4874997;29;20408;-83
2021/03/05 04:33:40;;;;;;;17.00;3.28;;;21.40;91.70;;;;;;4875137;29;20415;-86
2021/03/05 04:36:07;;;;;;;15.55;3.60;;;21.50;92.30;;;;;;4875298;29;21036;-84
2021/03/05 04:38:34;;;;;;;14.95;3.33;;;21.70;91.90;;;;;;4874951;29;20780;-84
2021/03/05 04:41:01;;;;;;;16.45;3.85;;;21.70;90.80;;;;;;4874870;29;20417;-83
2021/03/05 04:43:28;;;;;;;14.82;3.20;;;21.60;91.70;;;;;;4871118;29;20438;-84
2021/03/05 04:45:55;;;;;;;14.40;3.00;;;21.50;92.10;;;;;;4874643;29;20419;-84
2021/03/05 04:48:22;;;;;;;18.05;3.80;;;21.60;91.90;;;;;;4875034;29;20519;-83
2021/03/05 04:50:49;;;;;;;17.05;3.80;;;21.50;91.90;;;;;;4872497;29;20482;-81
2021/03/05 04:53:16;;;;;;;17.38;3.80;;;21.50;92.20;;;;;;4873543;29;20899;-81
2021/03/05 04:55:43;;;;;;;18.13;4.07;;;21.40;92.20;;;;;;4872863;29;20844;-81
2021/03/05 04:58:11;;;;;;;13.90;3.57;;;21.40;91.60;;;;;;4874638;29;20391;-80
2021/03/05 05:00:38;;;;;;;12.25;3.00;;;21.30;92.60;;;;;;4874433;29;20506;-82
2021/03/05 05:03:05;;;;;;;18.80;3.63;;;21.30;91.70;;;;;;4875283;29;20879;-81
2021/03/05 05:05:32;;;;;;;18.87;3.53;;;21.10;92.70;;;;;;4873960;29;20819;-82
2021/03/05 05:07:59;;;;;;;11.17;2.93;;;20.90;92.30;;;;;;4874860;29;20406;-82
2021/03/05 05:10:26;;;;;;;16.23;3.20;;;20.80;92.50;;;;;;4875475;29;20514;-82
2021/03/05 05:12:53;;;;;;;15.02;3.10;;;21.00;92.30;;;;;;4875059;29;20727;-81
2021/03/05 05:15:20;;;;;;;12.43;3.13;;;21.00;93.30;;;;;;4875200;29;20490;-81
2021/03/05 05:17:47;;;;;;;15.07;3.50;;;21.20;92.00;;;;;;4874953;29;20912;-81
2021/03/05 05:20:14;;;;;;;13.48;3.58;;;21.00;91.30;;;;;;4874420;29;20410;-81
2021/03/05 05:22:42;;;;;;;14.82;3.88;;;20.80;91.60;;;;;;4874504;29;20548;-81
2021/03/05 05:25:09;;;;;;;18.38;3.35;;;20.70;92.20;;;;;;4875338;29;20863;-80
2021/03/05 05:27:36;;;;;;;12.68;2.92;;;20.70;92.10;;;;;;4874802;29;20509;-80
2021/03/05 05:30:06;;;;;;;14.30;3.50;;;20.70;91.80;;;;;;4875542;29;20809;-82
2021/03/05 05:32:34;;;;;;;13.27;2.90;;;20.40;92.30;;;;;;4879433;29;20939;-80
2021/03/05 05:35:01;;;;;;;15.90;3.55;;;20.30;92.10;;;;;;4893061;29;20413;-81
2021/03/05 05:37:27;;;;;;;14.70;3.13;;;20.40;92.60;;;;;;4890056;29;20405;-81
2021/03/05 05:39:54;;;;;;;16.33;2.92;;;20.50;92.50;;;;;;4897517;29;20520;-80
2021/03/05 05:42:21;;;;;;;14.52;3.10;;;20.60;92.40;;;;;;4892261;29;20406;-81
2021/03/05 05:44:49;;;;;;;16.20;3.15;;;20.60;92.10;;;;;;4877473;29;20434;-81
2021/03/05 05:47:17;;;;;;;16.15;3.50;;;20.60;92.10;;;;;;4878583;29;20414;-82
2021/03/05 05:49:46;;;;;;;12.68;2.95;;;20.60;92.30;;;;;;4878475;29;20513;-81
2021/03/05 05:52:21;;;;;;;14.55;3.28;;;20.60;92.00;;;;;;4880979;29;20554;-81
2021/03/05 05:54:49;;;;;;;16.52;3.60;;;20.60;91.50;;;;;;4878496;29;20399;-80
2021/03/05 05:57:17;;;;;;;17.88;3.80;;;20.60;91.30;;;;;;4878409;29;20386;-80
2021/03/05 05:59:44;;;;;;;12.88;3.65;;;20.60;91.80;;;;;;4878259;29;20411;-81
2021/03/05 06:02:12;;;;;;;17.15;3.38;;;20.50;91.80;;;;;;4878296;29;20399;-82
2021/03/05 06:04:39;;;;;;;16.23;3.33;;;20.50;92.20;;;;;;4875678;29;20399;-81
2021/03/05 06:07:07;;;;;;;13.63;3.17;;;20.50;92.00;;;;;;4880800;29;20419;-82
2021/03/05 06:09:34;;;;;;;16.42;3.30;;;20.50;92.30;;;;;;4887315;29;20418;-81
2021/03/05 06:12:14;;;;;;;15.73;3.35;;;20.50;91.70;;;;;;4879632;29;20478;-82
2021/03/05 06:14:42;;;;;;;16.70;3.40;;;20.40;92.20;;;;;;4878125;29;20406;-81
2021/03/05 06:17:10;;;;;;;14.32;3.25;;;20.40;91.90;;;;;;4878357;29;20395;-82
2021/03/05 06:19:38;;;;;;;11.93;2.75;;;20.20;91.80;;;;;;4878163;29;20415;-82
2021/03/05 06:22:25;;;;;;;13.55;3.08;;;20.10;92.40;;;;;;4876562;29;20399;-84
2021/03/05 06:24:52;;;;;;;11.15;3.22;;;20.00;93.00;;;;;;4862891;29;20744;-82
2021/03/05 06:27:19;;;;;;;16.67;3.80;;;19.90;93.30;;;;;;4877340;29;20895;-82
2021/03/05 06:29:51;;;;;;;16.92;3.67;;;20.00;93.10;;;;;;4875126;29;20505;-82
2021/03/05 06:32:20;;;;;;;15.10;3.70;;;20.00;93.10;;;;;;4876534;29;20533;-81
2021/03/05 06:34:47;;;;;;;15.23;3.35;;;19.90;92.70;;;;;;4886756;29;20866;-81
2021/03/05 06:37:16;;;;;;;16.17;3.38;;;19.90;92.80;;;;;;4873812;29;20501;-83
2021/03/05 06:39:44;;;;;;;17.45;3.30;;;19.90;92.80;;;;;;4879934;29;20425;-82
2021/03/05 06:42:13;;;;;;;17.38;3.40;;;19.90;93.00;;;;;;4884357;29;20401;-81
2021/03/05 06:44:42;;;;;;;18.30;3.63;;;19.70;93.10;;;;;;4890924;29;20454;-81
2021/03/05 06:47:10;;;;;;;13.43;3.35;;;19.60;93.00;;;;;;4870042;29;20836;-81
2021/03/05 06:49:38;;;;;;;11.63;3.25;;;19.60;93.20;;;;;;4878234;29;20489;-80
2021/03/05 06:52:06;;;;;;;16.17;3.58;;;19.50;93.40;;;;;;4894310;29;20404;-80
2021/03/05 06:54:35;;;;;;;11.27;2.70;;;19.50;93.90;;;;;;4896260;29;20389;-80
2021/03/05 06:57:04;;;;;;;11.85;3.28;;;19.40;93.30;;;;;;4890981;29;20414;-84
2021/03/05 06:59:46;;;;;;;11.93;3.15;;;19.50;93.20;;;;;;4876564;29;20514;-80
2021/03/05 07:02:15;;;;;;;15.73;3.00;;;19.40;93.10;;;;;;4877374;29;20403;-79
2021/03/05 07:04:52;;;;;;;15.00;2.95;;;19.40;93.30;;;;;;4879046;29;20399;-78
2021/03/05 07:07:20;;;;;;;14.10;3.03;;;19.50;93.90;;;;;;4884222;29;20993;-81
2021/03/05 07:09:50;;;;;;;13.05;2.80;;;19.50;93.10;;;;;;4879433;29;20466;-78
2021/03/05 07:12:23;;;;;;;13.77;2.97;;;19.50;93.40;;;;;;4877335;29;20419;-79
2021/03/05 07:15:05;;;;;;;13.10;2.88;;;19.40;93.50;;;;;;4884069;29;20410;-79
2021/03/05 07:17:32;;;;;;;14.38;3.55;;;19.30;92.90;;;;;;4870937;29;20831;-79
2021/03/05 07:19:59;;;;;;;16.88;3.33;;;19.20;93.60;;;;;;4891941;29;20459;-78
2021/03/05 07:22:29;;;;;;;15.75;3.70;;;19.20;93.60;;;;;;4878267;29;20387;-80
2021/03/05 07:24:57;;;;;;;15.00;3.00;;;19.20;93.90;;;;;;4876955;29;20402;-78
2021/03/05 07:27:37;;;;;;;19.08;3.90;;;19.20;93.80;;;;;;4877313;29;20403;-81
2021/03/05 07:30:10;;;;;;;15.07;3.42;;;19.20;93.90;;;;;;4888200;29;20879;-80
2021/03/05 07:32:47;;;;;;;17.73;3.53;;;19.20;94.10;;;;;;4884565;29;20422;-80
2021/03/05 07:35:22;;;;;;;16.42;3.50;;;19.20;94.00;;;;;;4873944;29;21126;-80
2021/03/05 07:38:00;;;;;;;16.38;3.50;;;19.10;94.00;;;;;;4875427;29;20478;-81
2021/03/05 07:40:31;;;;;;;11.82;3.17;;;19.10;94.20;;;;;;4876649;29;20411;-82
2021/03/05 07:42:59;;;;;;;14.35;3.40;;;19.00;94.20;;;;;;4876891;29;20403;-81
2021/03/05 07:45:26;;;;;;;13.43;3.20;;;18.90;94.90;;;;;;4877020;29;20399;-80
2021/03/05 07:47:57;;;;;;;17.60;3.65;;;18.90;94.70;;;;;;4876669;29;20403;-80
2021/03/05 07:50:26;;;;;;;16.13;4.10;;;18.80;95.00;;;;;;4876687;29;20402;-79
2021/03/05 07:52:57;;;;;;;13.93;3.80;;;18.80;95.30;;;;;;4875730;29;20407;-81
2021/03/05 07:55:44;;;;;;;13.38;3.22;;;18.80;95.40;;;;;;4876821;29;20863;-81
2021/03/05 07:58:31;;;;;;;16.83;3.50;;;18.70;95.60;;;;;;4875595;29;20419;-80
2021/03/05 08:00:58;;;;;;;16.63;3.90;;;18.60;95.90;;;;;;4876244;29;20402;-81
2021/03/05 08:03:52;;;;;;;14.63;3.28;;;18.60;96.00;;;;;;4875647;29;20403;-79
2021/03/05 08:06:29;;;;;;;19.15;3.50;;;18.50;96.10;;;;;;4876291;29;20422;-80
2021/03/05 08:09:11;;;;;;;17.63;3.45;;;18.50;96.30;;;;;;4876122;29;22697;-79
2021/03/05 08:11:39;;;;;;;16.10;3.30;;;18.50;96.50;;;;;;4876620;29;20488;-80
2021/03/05 08:14:26;;;;;;;17.48;3.72;;;18.40;96.70;;;;;;4876168;29;20414;-81
2021/03/05 08:16:53;;;;;;;16.20;3.30;;;18.40;96.50;;;;;;4875492;29;20532;-81
2021/03/05 08:19:38;;;;;;;15.13;3.65;;;18.30;96.80;;;;;;4875871;29;20436;-80
2021/03/05 08:22:05;;;;;;;15.07;3.58;;;18.30;97.10;;;;;;4861926;29;20739;-80
2021/03/05 08:24:38;;;;;;;16.97;3.47;;;18.40;97.10;;;;;;4874581;29;20768;-83
2021/03/05 08:27:32;;;;;;;19.45;4.10;;;18.40;97.10;;;;;;4874943;29;20446;-83
2021/03/05 08:30:05;;;;;;;16.67;3.78;;;18.50;96.70;;;;;;4875311;29;20410;-83
2021/03/05 08:32:35;;;;;;;15.10;3.60;;;18.50;96.60;;;;;;4875690;29;20489;-82
2021/03/05 08:35:05;;;;;;;16.08;3.60;;;18.60;96.50;;;;;;4875816;29;20821;-81
2021/03/05 08:37:54;;;;;;;18.52;3.83;;;18.60;96.60;;;;;;4881938;29;20796;-83
2021/03/05 08:40:25;;;;;;;15.13;3.17;;;18.60;96.70;;;;;;4876087;29;20565;-82
2021/03/05 08:42:52;;;;;;;15.90;3.85;;;18.50;96.70;;;;;;4876908;29;20391;-82
2021/03/05 08:45:28;;;;;;;19.75;3.70;;;18.50;96.70;;;;;;4879008;29;20776;-82
2021/03/05 08:47:57;;;;;;;12.63;3.43;;;18.50;96.70;;;;;;4879367;29;20374;-84
2021/03/05 08:50:31;;;;;;;19.65;3.65;;;18.60;96.60;;;;;;4876700;29;20906;-81
2021/03/05 08:53:02;;;;;;;17.77;3.80;;;18.60;96.60;;;;;;4875784;29;20462;-81
2021/03/05 08:55:31;;;;;;;13.70;3.55;;;18.60;96.60;;;;;;4875918;29;20432;-80
2021/03/05 08:57:58;;;;;;;18.15;4.45;;;18.60;96.30;;;;;;4874513;29;20895;-81
2021/03/05 09:00:33;;;;;;;14.73;3.42;;;18.70;96.10;;;;;;4872648;29;20937;-80
2021/03/05 09:03:05;;;;;;;15.63;3.63;;;18.60;96.10;;;;;;4875385;29;20424;-80
2021/03/05 09:05:34;;;;;;;12.93;3.00;;;18.60;96.20;;;;;;4873930;29;20415;-81
2021/03/05 09:08:01;;;;;;;15.38;3.58;;;18.60;96.20;;;;;;4872681;29;20522;-80
2021/03/05 09:10:54;;;;;;;17.15;3.85;;;18.70;96.30;;;;;;4870383;29;20872;-80
2021/03/05 09:13:33;;;;;;;19.30;3.90;;;18.70;96.40;;;;;;4870911;29;20914;-80
2021/03/05 09:16:03;;;;;;;16.45;3.72;;;18.70;96.20;;;;;;4871854;29;20422;-81
2021/03/05 09:18:40;;;;;;;19.85;3.85;;;18.70;96.10;;;;;;4871607;29;20415;-79
2021/03/05 09:21:09;;;;;;;14.15;3.15;;;18.70;96.20;;;;;;4871971;29;20466;-80
2021/03/05 09:23:41;;;;;;;17.55;3.55;;;18.70;96.10;;;;;;4871328;29;20411;-80
2021/03/05 09:26:16;;;;;;;16.95;3.40;;;18.60;96.30;;;;;;4871361;29;20449;-80
2021/03/05 09:29:02;;;;;;;17.98;4.07;;;18.70;96.10;;;;;;4872330;29;20406;-80
2021/03/05 09:31:30;;;;;;;17.27;3.60;;;18.70;96.00;;;;;;4871199;29;20945;-80
2021/03/05 09:34:00;;;;;;;16.60;3.40;;;18.70;95.90;;;;;;4876229;29;20909;-80
2021/03/05 09:36:27;;;;;;;17.87;3.70;;;18.70;95.80;;;;;;4889495;29;20521;-81
2021/03/05 09:38:56;;;;;;;16.67;3.67;;;18.70;96.00;;;;;;4877907;29;20429;-80
2021/03/05 09:41:29;;;;;;;19.85;4.22;;;18.70;96.00;;;;;;4870681;29;20439;-80
2021/03/05 09:43:59;;;;;;;16.40;3.30;;;18.80;96.10;;;;;;4881295;29;20405;-81
2021/03/05 09:46:28;;;;;;;15.38;3.38;;;18.80;95.60;;;;;;4886440;29;20599;-81
2021/03/05 09:48:57;;;;;;;17.60;4.05;;;18.80;95.80;;;;;;4871598;29;20968;-80
2021/03/05 09:51:25;;;;;;;14.02;3.30;;;18.80;95.90;;;;;;4871285;29;20473;-80
2021/03/05 09:53:56;;;;;;;15.45;3.58;;;18.70;96.30;;;;;;4873340;29;20413;-80
2021/03/05 09:56:28;;;;;;;15.70;3.53;;;18.70;96.00;;;;;;4878558;29;20410;-81
2021/03/05 09:59:00;;;;;;;19.13;3.67;;;18.70;96.10;;;;;;4871443;29;20410;-80
2021/03/05 10:01:33;;;;;;;18.38;4.00;;;18.70;96.30;;;;;;4860862;29;20391;-80
2021/03/05 10:04:02;;;;;;;15.63;3.47;;;18.60;96.40;;;;;;4871488;29;20406;-80
2021/03/05 10:06:31;;;;;;;14.95;3.70;;;18.60;96.30;;;;;;4879982;29;20424;-80
2021/03/05 10:09:03;;;;;;;15.73;3.95;;;18.60;96.10;;;;;;4872966;29;20459;-80
2021/03/05 10:11:37;;;;;;;14.52;3.45;;;18.60;96.40;;;;;;4891135;29;20408;-81
2021/03/05 10:14:21;;;;;;;17.65;3.35;;;18.60;96.20;;;;;;4888429;29;20460;-80
2021/03/05 10:16:50;;;;;;;15.50;3.55;;;18.60;96.30;;;;;;4888702;29;20447;-79
2021/03/05 10:19:21;;;;;;;18.73;3.95;;;18.60;96.10;;;;;;4892632;29;20416;-80
2021/03/05 10:21:54;;;;;;;17.45;3.75;;;18.60;96.30;;;;;;4861938;29;20462;-80
2021/03/05 10:24:25;;;;;;;20.50;3.63;;;18.60;96.20;;;;;;4887965;29;20405;-80
2021/03/05 10:27:19;;;;;;;15.07;3.38;;;18.60;96.20;;;;;;4881828;29;20411;-79
2021/03/05 10:29:57;;;;;;;16.80;3.77;;;18.60;96.20;;;;;;4875929;29;20469;-81
2021/03/05 10:32:29;;;;;;;14.15;3.22;;;18.70;96.10;;;;;;4891191;29;20409;-80
2021/03/05 10:34:58;;;;;;;21.63;3.72;;;18.60;96.50;;;;;;4892547;29;20416;-80
2021/03/05 10:37:26;;;;;;;16.48;3.83;;;18.70;96.20;;;;;;4878080;29;20402;-80
2021/03/05 10:39:54;;;;;;;18.55;3.72;;;18.70;96.60;;;;;;4881506;29;20423;-80
2021/03/05 10:42:24;;;;;;;16.83;3.97;;;18.70;96.20;;;;;;4893054;29;20492;-79
2021/03/05 10:44:52;;;;;;;11.88;3.33;;;18.70;96.30;;;;;;4893018;29;20882;-79
2021/03/05 10:47:20;;;;;;;18.65;3.72;;;18.60;96.60;;;;;;4892637;29;20393;-78
2021/03/05 10:49:48;;;;;;;17.13;3.85;;;18.60;96.60;;;;;;4874711;29;20399;-79
2021/03/05 10:52:25;;;;;;;15.07;3.10;;;18.60;96.70;;;;;;4874933;29;20395;-79
2021/03/05 10:54:53;;;;;;;13.02;3.47;;;18.60;96.80;;;;;;4874243;29;20422;-79
2021/03/05 10:57:21;;;;;;;16.93;3.70;;;18.50;96.70;;;;;;4858805;29;21379;-78
2021/03/05 10:59:50;;;;;;;14.27;3.33;;;18.50;96.70;;;;;;4888928;29;20421;-79
2021/03/05 11:02:18;;;;;;;14.60;3.47;;;18.60;96.40;;;;;;4893415;29;20389;-79
2021/03/05 11:04:46;;;;;;;20.03;3.47;;;18.60;96.50;;;;;;4887472;29;20487;-79
2021/03/05 11:07:13;;;;;;;16.77;3.67;;;18.60;96.50;;;;;;4888866;29;20494;-80
2021/03/05 11:09:40;;;;;;;17.40;3.60;;;18.60;96.50;;;;;;4880075;29;20408;-79
2021/03/05 11:12:08;;;;;;;14.75;3.38;;;18.60;96.50;;;;;;4886220;29;20406;-79
2021/03/05 11:14:35;;;;;;;13.27;3.42;;;18.60;96.40;;;;;;4874477;29;20422;-80
2021/03/05 11:17:03;;;;;;;15.20;3.50;;;18.60;96.50;;;;;;4874093;29;20739;-80
2021/03/05 11:19:30;;;;;;;15.00;3.78;;;18.60;96.40;;;;;;4873281;29;20533;-79
2021/03/05 11:21:57;;;;;;;13.10;3.17;;;18.60;96.40;;;;;;4893180;29;20404;-79
2021/03/05 11:24:24;;;;;;;14.30;3.20;;;18.50;96.40;;;;;;4874815;29;20822;-82
2021/03/05 11:26:51;;;;;;;13.13;3.33;;;18.50;96.20;;;;;;4874515;29;20433;-80
2021/03/05 11:29:18;;;;;;;18.37;3.80;;;18.60;96.20;;;;;;4872400;29;20486;-81
2021/03/05 11:31:45;;;;;;;15.40;3.08;;;18.50;96.40;;;;;;4877393;29;20488;-79
2021/03/05 11:34:12;;;;;;;15.13;3.20;;;18.50;96.30;;;;;;4883884;29;20427;-80
2021/03/05 11:36:39;;;;;;;16.17;3.65;;;18.50;96.50;;;;;;4872662;29;20775;-79
2021/03/05 11:39:06;;;;;;;17.40;3.42;;;18.50;96.50;;;;;;4871911;29;20925;-79
2021/03/05 11:41:33;;;;;;;17.13;3.57;;;18.60;96.50;;;;;;4873738;29;20474;-80
2021/03/05 11:44:04;;;;;;;16.63;3.23;;;18.50;96.30;;;;;;4873772;29;20498;-80
2021/03/05 11:46:31;;;;;;;16.45;3.30;;;18.50;96.50;;;;;;4872464;29;20459;-80
2021/03/05 11:48:58;;;;;;;18.67;3.63;;;18.50;96.70;;;;;;4872651;29;20450;-81
2021/03/05 11:51:25;;;;;;;16.17;3.45;;;18.60;96.70;;;;;;4869301;29;20966;-80
2021/03/05 11:53:52;;;;;;;18.00;3.97;;;18.60;96.80;;;;;;4873718;29;20486;-81
2021/03/05 11:56:19;;;;;;;19.08;3.97;;;18.50;97.00;;;;;;4873343;29;20458;-81
2021/03/05 11:58:46;;;;;;;17.65;3.45;;;18.50;97.20;;;;;;4872434;29;20820;-82
2021/03/05 12:01:13;;;;;;;16.33;3.67;;;18.40;97.10;;;;;;4872496;29;20434;-80
2021/03/05 12:03:41;;;;;;;23.40;3.92;;;18.40;97.30;;;;;;4873795;29;20458;-81
2021/03/05 12:06:08;;;;;;;17.58;3.90;;;18.30;97.40;;;;;;4873497;29;20494;-81
2021/03/05 12:08:35;;;;;;;17.07;3.83;;;18.40;97.20;;;;;;4876399;29;21985;-81
2021/03/05 12:11:02;;;;;;;17.87;4.03;;;18.40;97.60;;;;;;4875624;29;20879;-80
2021/03/05 12:13:29;;;;;;;17.13;4.30;;;18.40;97.30;;;;;;4874242;29;20411;-82
2021/03/05 12:15:56;;;;;;;17.42;3.72;;;18.40;97.50;;;;;;4868401;29;20404;-80
2021/03/05 12:18:23;;;;;;;19.02;4.03;;;18.40;97.60;;;;;;4871234;29;20414;-80
2021/03/05 12:20:50;;;;;;;13.65;3.70;;;18.40;97.40;;;;;;4875791;29;20415;-82
2021/03/05 12:23:17;;;;;;;18.33;3.78;;;18.40;97.40;;;;;;4875498;29;20854;-81
2021/03/05 12:25:43;;;;;;;15.52;3.65;;;18.40;97.60;;;;;;4875190;29;20411;-81
2021/03/05 12:28:10;;;;;;;19.52;3.88;;;18.30;97.50;;;;;;4875982;29;20443;-79
2021/03/05 12:30:37;;;;;;;17.02;3.85;;;18.30;97.80;;;;;;4875038;29;20407;-80
2021/03/05 12:33:05;;;;;;;19.85;4.13;;;18.30;97.90;;;;;;4875757;29;20398;-80
2021/03/05 12:35:32;;;;;;;16.70;3.72;;;18.20;98.00;;;;;;4874911;29;20445;-79
2021/03/05 12:37:58;;;;;;;17.90;4.03;;;18.20;98.20;;;;;;4874528;29;20406;-80
2021/03/05 12:40:25;;;;;;;17.95;3.58;;;18.10;98.40;;;;;;4871658;29;20558;-80
2021/03/05 12:42:55;;;;;;;23.98;4.13;;;18.10;98.70;;;;;;4871559;29;20490;-79
2021/03/05 12:45:23;;;;;;;20.92;4.13;;;18.10;98.70;;;;;;4869622;29;20502;-79
2021/03/05 12:47:50;;;;;;;15.02;3.70;;;18.10;99.00;;;;;;4872333;29;20490;-79
2021/03/05 12:50:17;;;;;;;17.77;3.63;;;18.10;98.80;;;;;;4874747;29;20446;-81
2021/03/05 12:52:44;;;;;;;19.60;4.20;;;18.10;98.60;;;;;;4874916;29;20446;-79